Terminal Aerodrome Forecast
Issued by NWS Twin Cities, MN

Home | Current Version | Previous Version | Graphics & Text | Print | Product List | Glossary On
Versions: 1 2 3 4 5 6 7 8 9 10 11 12 13 14 15 16 17 18 19 20
000
FTUS43 KMPX 191100
TAFSTC
TAF
KSTC 191139Z 1912/2012 31003KT 6SM BR SCT006 SCT200
      TEMPO 1912/1914 BKN006
     FM191400 32007KT P6SM SCT200
     FM200200 VRB02KT P6SM SCT200
     FM200600 00000KT 4SM BR SCT002
      TEMPO 2008/2012 1SM BR BKN001=

USA.gov is the U.S. government's official web portal to all federal, state and local government web resources and services.